sensor_id;sensor_type;location;lat;lon;timestamp;pressure;altitude;pressure_sealevel;temperature;humidity
70248;BME280;57641;51.416;5.506;2023-07-20T00:01:49;101480.53;;;22.62;56.94
70248;BME280;57641;51.416;5.506;2023-07-20T00:04:14;101482.63;;;22.60;56.84
70248;BME280;57641;51.416;5.506;2023-07-20T00:06:40;101484.72;;;22.58;56.83
70248;BME280;57641;51.416;5.506;2023-07-20T00:09:07;101487.69;;;22.50;57.02
70248;BME280;57641;51.416;5.506;2023-07-20T00:11:36;101483.16;;;22.37;57.24
70248;BME280;57641;51.416;5.506;2023-07-20T00:14:06;101488.16;;;22.40;57.19
70248;BME280;57641;51.416;5.506;2023-07-20T00:16:32;101484.03;;;22.31;57.26
70248;BME280;57641;51.416;5.506;2023-07-20T00:18:57;101488.84;;;22.22;56.88
70248;BME280;57641;51.416;5.506;2023-07-20T00:21:26;101482.59;;;22.22;57.45
70248;BME280;57641;51.416;5.506;2023-07-20T00:23:51;101491.59;;;22.16;57.07
70248;BME280;57641;51.416;5.506;2023-07-20T00:26:16;101485.34;;;22.09;56.92
70248;BME280;57641;51.416;5.506;2023-07-20T00:28:43;101488.25;;;22.14;57.10
70248;BME280;57641;51.416;5.506;2023-07-20T00:31:09;101486.59;;;22.13;56.64
70248;BME280;57641;51.416;5.506;2023-07-20T00:33:37;101481.63;;;21.97;57.10
70248;BME280;57641;51.416;5.506;2023-07-20T00:36:03;101478.06;;;22.03;56.96
70248;BME280;57641;51.416;5.506;2023-07-20T00:38:28;101483.09;;;21.99;57.04
70248;BME280;57641;51.416;5.506;2023-07-20T00:40:54;101476.78;;;21.92;57.26
70248;BME280;57641;51.416;5.506;2023-07-20T00:43:20;101480.97;;;21.95;57.49
70248;BME280;57641;51.416;5.506;2023-07-20T00:45:45;101479.53;;;21.99;57.14
70248;BME280;57641;51.416;5.506;2023-07-20T00:48:13;101484.53;;;21.95;57.29
70248;BME280;57641;51.416;5.506;2023-07-20T00:50:40;101484.75;;;21.94;57.19
70248;BME280;57641;51.416;5.506;2023-07-20T00:53:07;101489.13;;;21.88;57.30
70248;BME280;57641;51.416;5.506;2023-07-20T00:55:36;101481.19;;;21.86;57.61
70248;BME280;57641;51.416;5.506;2023-07-20T00:58:02;101479.72;;;21.84;57.46
70248;BME280;57641;51.416;5.506;2023-07-20T01:00:29;101488.50;;;21.79;57.17
70248;BME280;57641;51.416;5.506;2023-07-20T01:02:55;101481.84;;;21.75;57.35
70248;BME280;57641;51.416;5.506;2023-07-20T01:05:34;101481.00;;;21.75;57.59
70248;BME280;57641;51.416;5.506;2023-07-20T01:08:09;101483.50;;;21.70;57.48
70248;BME280;57641;51.416;5.506;2023-07-20T01:11:28;101484.78;;;21.67;57.69
70248;BME280;57641;51.416;5.506;2023-07-20T01:13:36;101485.38;;;21.69;57.71
70248;BME280;57641;51.416;5.506;2023-07-20T01:16:03;101493.97;;;21.66;57.51
70248;BME280;57641;51.416;5.506;2023-07-20T01:18:33;101495.22;;;21.64;57.66
70248;BME280;57641;51.416;5.506;2023-07-20T01:21:03;101489.78;;;21.64;57.61
70248;BME280;57641;51.416;5.506;2023-07-20T01:29:34;101488.34;;;21.35;57.88
70248;BME280;57641;51.416;5.506;2023-07-20T01:32:02;101491.47;;;21.38;58.25
70248;BME280;57641;51.416;5.506;2023-07-20T01:34:29;101495.03;;;21.45;57.99
70248;BME280;57641;51.416;5.506;2023-07-20T01:37:02;101495.22;;;21.44;58.35
70248;BME280;57641;51.416;5.506;2023-07-20T01:39:29;101484.56;;;21.49;58.07
70248;BME280;57641;51.416;5.506;2023-07-20T01:41:56;101485.41;;;21.49;57.86
70248;BME280;57641;51.416;5.506;2023-07-20T01:44:23;101488.56;;;21.46;57.82
70248;BME280;57641;51.416;5.506;2023-07-20T01:46:48;101489.38;;;21.27;58.17
70248;BME280;57641;51.416;5.506;2023-07-20T01:49:14;101486.47;;;21.29;58.28
70248;BME280;57641;51.416;5.506;2023-07-20T01:51:41;101482.69;;;21.23;58.51
70248;BME280;57641;51.416;5.506;2023-07-20T01:54:07;101494.59;;;21.29;58.34
70248;BME280;57641;51.416;5.506;2023-07-20T01:56:32;101504.41;;;21.23;58.64
70248;BME280;57641;51.416;5.506;2023-07-20T01:59:01;101496.47;;;21.28;58.40
70248;BME280;57641;51.416;5.506;2023-07-20T02:01:27;101501.28;;;21.39;58.73
70248;BME280;57641;51.416;5.506;2023-07-20T02:03:54;101505.88;;;21.39;58.29
70248;BME280;57641;51.416;5.506;2023-07-20T02:06:20;101495.88;;;21.46;58.35
70248;BME280;57641;51.416;5.506;2023-07-20T02:08:45;101499.63;;;21.45;58.50
70248;BME280;57641;51.416;5.506;2023-07-20T02:11:11;101496.28;;;21.49;58.39
70248;BME280;57641;51.416;5.506;2023-07-20T02:13:37;101499.41;;;21.40;58.35
70248;BME280;57641;51.416;5.506;2023-07-20T02:16:03;101504.81;;;21.33;58.88
70248;BME280;57641;51.416;5.506;2023-07-20T02:18:29;101507.56;;;21.46;58.50
70248;BME280;57641;51.416;5.506;2023-07-20T02:20:55;101501.47;;;21.31;58.66
70248;BME280;57641;51.416;5.506;2023-07-20T02:23:21;101507.75;;;21.45;58.63
70248;BME280;57641;51.416;5.506;2023-07-20T02:25:46;101502.34;;;21.52;58.53
70248;BME280;57641;51.416;5.506;2023-07-20T02:28:13;101507.31;;;21.55;58.93
70248;BME280;57641;51.416;5.506;2023-07-20T02:30:39;101507.31;;;21.55;58.82
70248;BME280;57641;51.416;5.506;2023-07-20T02:33:05;101515.28;;;21.56;58.99
70248;BME280;57641;51.416;5.506;2023-07-20T02:35:32;101513.38;;;21.63;58.89
70248;BME280;57641;51.416;5.506;2023-07-20T02:37:58;101509.81;;;21.63;59.07
70248;BME280;57641;51.416;5.506;2023-07-20T02:40:27;101515.69;;;21.66;58.63
70248;BME280;57641;51.416;5.506;2023-07-20T02:42:53;101517.34;;;21.67;58.72
70248;BME280;57641;51.416;5.506;2023-07-20T02:45:19;101523.00;;;21.72;58.37
70248;BME280;57641;51.416;5.506;2023-07-20T02:47:44;101522.56;;;21.62;58.88
70248;BME280;57641;51.416;5.506;2023-07-20T02:50:10;101518.41;;;21.66;58.69
70248;BME280;57641;51.416;5.506;2023-07-20T02:52:36;101530.72;;;21.62;59.03
70248;BME280;57641;51.416;5.506;2023-07-20T02:55:02;101523.63;;;21.68;59.05
70248;BME280;57641;51.416;5.506;2023-07-20T02:57:28;101534.69;;;21.66;59.21
70248;BME280;57641;51.416;5.506;2023-07-20T02:59:54;101529.25;;;21.73;59.02
70248;BME280;57641;51.416;5.506;2023-07-20T03:02:20;101533.63;;;21.74;59.06
70248;BME280;57641;51.416;5.506;2023-07-20T03:04:45;101531.94;;;21.79;58.82
70248;BME280;57641;51.416;5.506;2023-07-20T03:07:11;101537.81;;;21.83;58.75
70248;BME280;57641;51.416;5.506;2023-07-20T03:09:36;101534.22;;;21.89;58.45
70248;BME280;57641;51.416;5.506;2023-07-20T03:12:02;101536.94;;;21.89;58.42
70248;BME280;57641;51.416;5.506;2023-07-20T03:14:30;101538.00;;;21.81;58.40
70248;BME280;57641;51.416;5.506;2023-07-20T03:16:57;101545.50;;;21.79;58.19
70248;BME280;57641;51.416;5.506;2023-07-20T03:19:22;101552.41;;;21.82;58.64
70248;BME280;57641;51.416;5.506;2023-07-20T03:21:48;101545.50;;;21.86;58.46
70248;BME280;57641;51.416;5.506;2023-07-20T03:24:14;101546.78;;;21.83;58.34
70248;BME280;57641;51.416;5.506;2023-07-20T03:26:40;101551.97;;;21.85;58.46
70248;BME280;57641;51.416;5.506;2023-07-20T03:29:06;101548.44;;;21.84;58.24
70248;BME280;57641;51.416;5.506;2023-07-20T03:31:35;101540.09;;;21.86;58.38
70248;BME280;57641;51.416;5.506;2023-07-20T03:34:00;101548.03;;;21.87;58.27
70248;BME280;57641;51.416;5.506;2023-07-20T03:36:25;101547.59;;;21.84;58.10
70248;BME280;57641;51.416;5.506;2023-07-20T03:38:51;101550.09;;;21.85;58.33
70248;BME280;57641;51.416;5.506;2023-07-20T03:41:17;101554.94;;;21.83;58.54
70248;BME280;57641;51.416;5.506;2023-07-20T03:43:43;101563.47;;;21.80;58.21
70248;BME280;57641;51.416;5.506;2023-07-20T03:46:08;101564.75;;;21.78;57.97
70248;BME280;57641;51.416;5.506;2023-07-20T03:48:34;101561.19;;;21.77;58.40
70248;BME280;57641;51.416;5.506;2023-07-20T03:51:00;101557.00;;;21.88;58.51
70248;BME280;57641;51.416;5.506;2023-07-20T03:53:26;101568.72;;;21.88;57.92
70248;BME280;57641;51.416;5.506;2023-07-20T03:55:52;101567.03;;;21.81;57.56
70248;BME280;57641;51.416;5.506;2023-07-20T03:58:19;101566.59;;;21.84;57.16
70248;BME280;57641;51.416;5.506;2023-07-20T04:00:47;101566.38;;;21.79;56.87
70248;BME280;57641;51.416;5.506;2023-07-20T04:03:14;101567.22;;;21.86;56.54
70248;BME280;57641;51.416;5.506;2023-07-20T04:05:40;101576.00;;;21.81;56.35
70248;BME280;57641;51.416;5.506;2023-07-20T04:08:06;101568.50;;;21.77;56.29
70248;BME280;57641;51.416;5.506;2023-07-20T04:10:32;101572.25;;;21.82;56.80
70248;BME280;57641;51.416;5.506;2023-07-20T04:12:58;101570.16;;;21.84;56.51
70248;BME280;57641;51.416;5.506;2023-07-20T04:15:23;101566.19;;;21.87;57.03
70248;BME280;57641;51.416;5.506;2023-07-20T04:17:53;101571.81;;;21.85;56.78
70248;BME280;57641;51.416;5.506;2023-07-20T04:20:18;101574.34;;;21.67;57.30
70248;BME280;57641;51.416;5.506;2023-07-20T04:22:44;101569.13;;;21.72;57.00
70248;BME280;57641;51.416;5.506;2023-07-20T04:25:14;101571.63;;;21.74;57.18
70248;BME280;57641;51.416;5.506;2023-07-20T04:27:40;101578.28;;;21.84;57.35
70248;BME280;57641;51.416;5.506;2023-07-20T04:30:09;101574.53;;;21.79;57.68
70248;BME280;57641;51.416;5.506;2023-07-20T04:32:35;101573.94;;;21.83;57.29
70248;BME280;57641;51.416;5.506;2023-07-20T04:35:06;101580.81;;;21.79;56.74
70248;BME280;57641;51.416;5.506;2023-07-20T04:37:33;101585.00;;;21.82;56.60
70248;BME280;57641;51.416;5.506;2023-07-20T04:39:58;101581.22;;;21.70;56.99
70248;BME280;57641;51.416;5.506;2023-07-20T04:42:24;101597.31;;;21.78;57.07
70248;BME280;57641;51.416;5.506;2023-07-20T04:44:50;101587.50;;;21.70;56.55
70248;BME280;57641;51.416;5.506;2023-07-20T04:47:18;101590.63;;;21.67;56.98
70248;BME280;57641;51.416;5.506;2023-07-20T04:49:47;101596.06;;;21.67;56.67
70248;BME280;57641;51.416;5.506;2023-07-20T04:52:13;101590.84;;;21.72;56.70
70248;BME280;57641;51.416;5.506;2023-07-20T04:54:38;101588.53;;;21.63;56.77
70248;BME280;57641;51.416;5.506;2023-07-20T04:57:11;101579.53;;;21.69;57.03
70248;BME280;57641;51.416;5.506;2023-07-20T04:59:38;101583.75;;;21.71;57.09
70248;BME280;57641;51.416;5.506;2023-07-20T05:02:04;101581.00;;;21.65;57.16
70248;BME280;57641;51.416;5.506;2023-07-20T05:04:30;101576.00;;;21.68;57.07
70248;BME280;57641;51.416;5.506;2023-07-20T05:06:58;101592.47;;;21.54;57.06
70248;BME280;57641;51.416;5.506;2023-07-20T05:09:24;101590.81;;;21.46;57.44
70248;BME280;57641;51.416;5.506;2023-07-20T05:11:50;101582.28;;;21.56;57.12
70248;BME280;57641;51.416;5.506;2023-07-20T05:14:16;101580.59;;;21.55;56.58
70248;BME280;57641;51.416;5.506;2023-07-20T05:16:42;101582.06;;;21.51;56.86
70248;BME280;57641;51.416;5.506;2023-07-20T05:19:08;101587.47;;;21.44;56.79
70248;BME280;57641;51.416;5.506;2023-07-20T05:21:34;101588.94;;;21.53;56.40
70248;BME280;57641;51.416;5.506;2023-07-20T05:24:03;101593.13;;;21.56;56.34
70248;BME280;57641;51.416;5.506;2023-07-20T05:26:32;101589.38;;;21.57;56.23
70248;BME280;57641;51.416;5.506;2023-07-20T05:28:58;101592.28;;;21.48;56.20
70248;BME280;57641;51.416;5.506;2023-07-20T05:31:31;101592.09;;;21.57;56.79
70248;BME280;57641;51.416;5.506;2023-07-20T05:33:57;101598.56;;;21.56;56.51
70248;BME280;57641;51.416;5.506;2023-07-20T05:36:24;101599.34;;;21.43;56.71
70248;BME280;57641;51.416;5.506;2023-07-20T05:38:50;101595.00;;;21.55;56.37
70248;BME280;57641;51.416;5.506;2023-07-20T05:41:15;101605.03;;;21.68;56.26
70248;BME280;57641;51.416;5.506;2023-07-20T05:43:42;101608.56;;;21.68;56.62
70248;BME280;57641;51.416;5.506;2023-07-20T05:46:08;101603.16;;;21.75;56.07
70248;BME280;57641;51.416;5.506;2023-07-20T05:48:35;101610.88;;;21.84;55.32
70248;BME280;57641;51.416;5.506;2023-07-20T05:51:03;101608.38;;;21.83;55.38
70248;BME280;57641;51.416;5.506;2023-07-20T05:53:28;101605.44;;;21.84;55.07
70248;BME280;57641;51.416;5.506;2023-07-20T05:55:54;101613.19;;;21.81;55.32
70248;BME280;57641;51.416;5.506;2023-07-20T05:58:21;101612.78;;;21.77;54.60
70248;BME280;57641;51.416;5.506;2023-07-20T06:00:49;101613.59;;;21.78;54.35
70248;BME280;57641;51.416;5.506;2023-07-20T06:03:15;101619.44;;;21.81;54.53
70248;BME280;57641;51.416;5.506;2023-07-20T06:05:43;101614.00;;;21.75;54.53
70248;BME280;57641;51.416;5.506;2023-07-20T06:08:09;101612.97;;;21.76;54.76
70248;BME280;57641;51.416;5.506;2023-07-20T06:10:35;101614.44;;;21.85;54.88
70248;BME280;57641;51.416;5.506;2023-07-20T06:13:00;101606.06;;;21.80;54.70
70248;BME280;57641;51.416;5.506;2023-07-20T06:15:32;101615.69;;;21.82;54.62
70248;BME280;57641;51.416;5.506;2023-07-20T06:18:01;101620.47;;;21.80;54.95
70248;BME280;57641;51.416;5.506;2023-07-20T06:20:27;101631.34;;;21.87;54.97
70248;BME280;57641;51.416;5.506;2023-07-20T06:22:52;101630.09;;;21.76;54.78
70248;BME280;57641;51.416;5.506;2023-07-20T06:25:21;101639.09;;;21.83;54.48
70248;BME280;57641;51.416;5.506;2023-07-20T06:27:52;101628.41;;;21.75;55.00
70248;BME280;57641;51.416;5.506;2023-07-20T06:30:18;101629.88;;;21.84;54.00
70248;BME280;57641;51.416;5.506;2023-07-20T06:32:43;101621.13;;;21.96;54.74
70248;BME280;57641;51.416;5.506;2023-07-20T06:35:09;101621.78;;;22.04;53.87
70248;BME280;57641;51.416;5.506;2023-07-20T06:37:35;101621.56;;;22.06;53.46
70248;BME280;57641;51.416;5.506;2023-07-20T06:40:02;101622.63;;;22.05;52.88
70248;BME280;57641;51.416;5.506;2023-07-20T06:42:29;101627.63;;;22.08;52.99
70248;BME280;57641;51.416;5.506;2023-07-20T06:44:57;101620.13;;;22.10;52.68
70248;BME280;57641;51.416;5.506;2023-07-20T06:47:23;101627.63;;;22.14;52.79
70248;BME280;57641;51.416;5.506;2023-07-20T06:49:49;101622.59;;;22.18;52.78
70248;BME280;57641;51.416;5.506;2023-07-20T06:52:18;101620.50;;;22.20;52.82
70248;BME280;57641;51.416;5.506;2023-07-20T06:54:45;101627.19;;;22.24;53.21
70248;BME280;57641;51.416;5.506;2023-07-20T06:57:10;101630.97;;;22.10;52.57
70248;BME280;57641;51.416;5.506;2023-07-20T06:59:36;101636.41;;;21.97;52.47
70248;BME280;57641;51.416;5.506;2023-07-20T07:02:02;101628.63;;;22.26;52.18
70248;BME280;57641;51.416;5.506;2023-07-20T07:04:28;101637.22;;;22.30;51.95
70248;BME280;57641;51.416;5.506;2023-07-20T07:06:54;101640.13;;;22.42;53.33
70248;BME280;57641;51.416;5.506;2023-07-20T07:09:19;101640.34;;;22.47;54.06
70248;BME280;57641;51.416;5.506;2023-07-20T07:11:46;101646.16;;;22.50;52.44
70248;BME280;57641;51.416;5.506;2023-07-20T07:14:12;101646.16;;;22.57;52.53
70248;BME280;57641;51.416;5.506;2023-07-20T07:16:39;101649.72;;;22.51;51.44
70248;BME280;57641;51.416;5.506;2023-07-20T07:19:05;101653.47;;;22.50;50.77
70248;BME280;57641;51.416;5.506;2023-07-20T07:21:31;101656.41;;;22.48;50.52
70248;BME280;57641;51.416;5.506;2023-07-20T07:23:57;101651.59;;;22.50;50.58
70248;BME280;57641;51.416;5.506;2023-07-20T07:26:30;101649.53;;;22.46;51.82
70248;BME280;57641;51.416;5.506;2023-07-20T07:28:56;101649.28;;;22.47;51.58
70248;BME280;57641;51.416;5.506;2023-07-20T07:31:22;101644.09;;;22.39;50.31
70248;BME280;57641;51.416;5.506;2023-07-20T07:33:49;101645.56;;;22.35;50.26
70248;BME280;57641;51.416;5.506;2023-07-20T07:36:15;101647.22;;;22.43;49.69
70248;BME280;57641;51.416;5.506;2023-07-20T07:38:42;101653.03;;;22.59;50.31
70248;BME280;57641;51.416;5.506;2023-07-20T07:41:08;101642.78;;;22.61;50.37
70248;BME280;57641;51.416;5.506;2023-07-20T07:43:34;101643.44;;;22.57;50.09
70248;BME280;57641;51.416;5.506;2023-07-20T07:46:00;101651.34;;;22.58;50.67
70248;BME280;57641;51.416;5.506;2023-07-20T07:48:26;101646.94;;;22.70;51.52
70248;BME280;57641;51.416;5.506;2023-07-20T07:50:53;101660.75;;;22.76;50.22
70248;BME280;57641;51.416;5.506;2023-07-20T07:53:19;101659.28;;;22.80;49.61
70248;BME280;57641;51.416;5.506;2023-07-20T07:55:47;101660.56;;;22.84;50.52
70248;BME280;57641;51.416;5.506;2023-07-20T07:58:13;101657.75;;;23.03;50.63
70248;BME280;57641;51.416;5.506;2023-07-20T08:00:39;101659.81;;;23.08;49.74
70248;BME280;57641;51.416;5.506;2023-07-20T08:03:08;101660.00;;;23.13;50.24
70248;BME280;57641;51.416;5.506;2023-07-20T08:05:33;101665.88;;;23.10;49.81
70248;BME280;57641;51.416;5.506;2023-07-20T08:08:01;101662.00;;;22.86;49.32
70248;BME280;57641;51.416;5.506;2023-07-20T08:10:26;101662.81;;;22.87;49.42
70248;BME280;57641;51.416;5.506;2023-07-20T08:12:52;101667.03;;;22.83;49.49
70248;BME280;57641;51.416;5.506;2023-07-20T08:15:17;101674.81;;;22.72;49.43
70248;BME280;57641;51.416;5.506;2023-07-20T08:17:43;101671.63;;;22.82;49.37
70248;BME280;57641;51.416;5.506;2023-07-20T08:20:12;101676.63;;;22.92;49.11
70248;BME280;57641;51.416;5.506;2023-07-20T08:22:38;101669.50;;;22.91;48.67
70248;BME280;57641;51.416;5.506;2023-07-20T08:25:06;101666.56;;;22.92;49.07
70248;BME280;57641;51.416;5.506;2023-07-20T08:27:32;101674.00;;;23.16;48.25
70248;BME280;57641;51.416;5.506;2023-07-20T08:29:59;101678.56;;;23.29;48.07
70248;BME280;57641;51.416;5.506;2023-07-20T08:32:25;101666.19;;;23.33;46.81
70248;BME280;57641;51.416;5.506;2023-07-20T08:34:51;101674.25;;;23.53;47.46
70248;BME280;57641;51.416;5.506;2023-07-20T08:37:17;101669.88;;;23.52;48.52
70248;BME280;57641;51.416;5.506;2023-07-20T08:39:43;101669.63;;;23.60;47.57
70248;BME280;57641;51.416;5.506;2023-07-20T08:42:11;101669.81;;;23.58;45.57
70248;BME280;57641;51.416;5.506;2023-07-20T08:44:41;101664.53;;;23.70;44.75
70248;BME280;57641;51.416;5.506;2023-07-20T08:47:08;101666.03;;;23.91;45.48
70248;BME280;57641;51.416;5.506;2023-07-20T08:49:36;101664.44;;;24.08;44.29
70248;BME280;57641;51.416;5.506;2023-07-20T08:52:04;101646.28;;;24.27;44.33
70248;BME280;57641;51.416;5.506;2023-07-20T08:54:31;101662.72;;;24.38;45.38
70248;BME280;57641;51.416;5.506;2023-07-20T08:57:04;101659.41;;;24.36;44.34
70248;BME280;57641;51.416;5.506;2023-07-20T08:59:31;101660.63;;;24.40;43.29
70248;BME280;57641;51.416;5.506;2023-07-20T09:01:59;101657.59;;;24.49;44.33
70248;BME280;57641;51.416;5.506;2023-07-20T09:04:26;101662.44;;;24.65;44.15
70248;BME280;57641;51.416;5.506;2023-07-20T09:06:51;101650.66;;;24.71;43.93
70248;BME280;57641;51.416;5.506;2023-07-20T09:09:18;101661.19;;;24.67;43.85
70248;BME280;57641;51.416;5.506;2023-07-20T09:11:48;101658.97;;;24.58;43.25
70248;BME280;57641;51.416;5.506;2023-07-20T09:14:17;101661.66;;;24.39;43.08
70248;BME280;57641;51.416;5.506;2023-07-20T09:16:53;101655.00;;;24.35;42.79
70248;BME280;57641;51.416;5.506;2023-07-20T09:19:24;101653.44;;;24.46;43.35
70248;BME280;57641;51.416;5.506;2023-07-20T09:21:52;101656.06;;;24.34;42.95
70248;BME280;57641;51.416;5.506;2023-07-20T09:24:20;101654.03;;;24.48;43.25
70248;BME280;57641;51.416;5.506;2023-07-20T09:26:48;101654.94;;;24.60;43.11
70248;BME280;57641;51.416;5.506;2023-07-20T09:29:22;101650.44;;;24.72;41.60
70248;BME280;57641;51.416;5.506;2023-07-20T09:32:04;101651.47;;;24.53;41.65
70248;BME280;57641;51.416;5.506;2023-07-20T09:34:32;101642.38;;;24.77;42.61
70248;BME280;57641;51.416;5.506;2023-07-20T09:36:58;101638.28;;;24.87;42.64
70248;BME280;57641;51.416;5.506;2023-07-20T09:39:24;101647.78;;;25.02;42.30
70248;BME280;57641;51.416;5.506;2023-07-20T09:41:51;101637.97;;;25.13;40.81
70248;BME280;57641;51.416;5.506;2023-07-20T09:44:17;101635.16;;;25.38;41.71
70248;BME280;57641;51.416;5.506;2023-07-20T09:46:53;101633.69;;;25.35;40.90
70248;BME280;57641;51.416;5.506;2023-07-20T09:49:19;101629.81;;;25.43;40.90
70248;BME280;57641;51.416;5.506;2023-07-20T09:51:45;101626.94;;;24.71;40.47
70248;BME280;57641;51.416;5.506;2023-07-20T09:54:15;101627.22;;;25.18;40.49
70248;BME280;57641;51.416;5.506;2023-07-20T09:56:43;101630.06;;;25.23;40.95
70248;BME280;57641;51.416;5.506;2023-07-20T09:59:09;101627.25;;;25.00;41.80
70248;BME280;57641;51.416;5.506;2023-07-20T10:01:34;101634.13;;;25.20;39.44
70248;BME280;57641;51.416;5.506;2023-07-20T10:04:05;101624.59;;;25.41;39.67
70248;BME280;57641;51.416;5.506;2023-07-20T10:06:33;101627.31;;;25.41;39.17
70248;BME280;57641;51.416;5.506;2023-07-20T10:09:03;101628.56;;;25.27;38.45
70248;BME280;57641;51.416;5.506;2023-07-20T10:11:35;101622.91;;;25.40;37.35
70248;BME280;57641;51.416;5.506;2023-07-20T10:14:04;101621.25;;;25.39;38.32
70248;BME280;57641;51.416;5.506;2023-07-20T10:16:43;101619.28;;;25.16;37.63
70248;BME280;57641;51.416;5.506;2023-07-20T10:19:22;101619.91;;;25.30;38.21
70248;BME280;57641;51.416;5.506;2023-07-20T10:21:59;101621.03;;;25.11;37.83
70248;BME280;57641;51.416;5.506;2023-07-20T10:24:28;101617.88;;;25.26;37.41
70248;BME280;57641;51.416;5.506;2023-07-20T10:26:55;101622.41;;;25.32;37.90
70248;BME280;57641;51.416;5.506;2023-07-20T10:29:22;101617.25;;;25.53;39.35
70248;BME280;57641;51.416;5.506;2023-07-20T10:31:53;101613.03;;;25.57;38.56
70248;BME280;57641;51.416;5.506;2023-07-20T10:34:19;101613.91;;;25.70;39.52
70248;BME280;57641;51.416;5.506;2023-07-20T10:36:45;101603.91;;;25.75;38.50
70248;BME280;57641;51.416;5.506;2023-07-20T10:39:28;101598.44;;;25.75;37.49
70248;BME280;57641;51.416;5.506;2023-07-20T10:42:03;101604.28;;;25.49;37.37
70248;BME280;57641;51.416;5.506;2023-07-20T10:44:31;101604.63;;;25.82;38.99
70248;BME280;57641;51.416;5.506;2023-07-20T10:47:09;101603.53;;;25.72;36.34
70248;BME280;57641;51.416;5.506;2023-07-20T10:49:59;101600.38;;;25.75;36.49
70248;BME280;57641;51.416;5.506;2023-07-20T10:53:03;101594.25;;;25.61;36.67
70248;BME280;57641;51.416;5.506;2023-07-20T10:55:31;101593.47;;;25.72;37.64
70248;BME280;57641;51.416;5.506;2023-07-20T10:58:11;101602.94;;;25.58;38.16
70248;BME280;57641;51.416;5.506;2023-07-20T11:00:54;101593.75;;;25.52;39.22
70248;BME280;57641;51.416;5.506;2023-07-20T11:03:27;101591.75;;;25.59;37.71
70248;BME280;57641;51.416;5.506;2023-07-20T11:05:57;101596.22;;;25.54;38.14
70248;BME280;57641;51.416;5.506;2023-07-20T11:08:43;101594.06;;;25.33;37.43
70248;BME280;57641;51.416;5.506;2023-07-20T11:11:26;101594.78;;;25.10;38.39
70248;BME280;57641;51.416;5.506;2023-07-20T11:13:56;101598.81;;;25.37;38.73
70248;BME280;57641;51.416;5.506;2023-07-20T11:16:44;101595.75;;;25.45;38.81
70248;BME280;57641;51.416;5.506;2023-07-20T11:19:18;101595.81;;;25.57;38.22
70248;BME280;57641;51.416;5.506;2023-07-20T11:21:47;101588.00;;;25.72;37.70
70248;BME280;57641;51.416;5.506;2023-07-20T11:24:20;101588.84;;;25.84;35.64
70248;BME280;57641;51.416;5.506;2023-07-20T11:26:51;101588.38;;;25.99;36.13
70248;BME280;57641;51.416;5.506;2023-07-20T11:29:19;101574.69;;;25.87;36.47
70248;BME280;57641;51.416;5.506;2023-07-20T11:31:46;101571.25;;;26.15;37.35
70248;BME280;57641;51.416;5.506;2023-07-20T11:34:20;101573.16;;;25.91;36.23
70248;BME280;57641;51.416;5.506;2023-07-20T11:36:54;101580.28;;;25.81;36.31
70248;BME280;57641;51.416;5.506;2023-07-20T11:39:22;101570.06;;;25.88;36.06
70248;BME280;57641;51.416;5.506;2023-07-20T11:41:49;101565.91;;;25.97;37.71
70248;BME280;57641;51.416;5.506;2023-07-20T11:44:16;101566.41;;;25.94;37.35
70248;BME280;57641;51.416;5.506;2023-07-20T11:46:43;101563.28;;;26.02;38.63
70248;BME280;57641;51.416;5.506;2023-07-20T11:49:10;101571.88;;;26.05;37.78
70248;BME280;57641;51.416;5.506;2023-07-20T11:51:38;101566.16;;;25.95;37.56
70248;BME280;57641;51.416;5.506;2023-07-20T11:54:07;101564.25;;;26.19;36.62
70248;BME280;57641;51.416;5.506;2023-07-20T11:56:34;101564.34;;;26.13;36.59
70248;BME280;57641;51.416;5.506;2023-07-20T11:59:02;101557.13;;;26.41;37.58
70248;BME280;57641;51.416;5.506;2023-07-20T12:01:30;101559.81;;;26.65;36.36
70248;BME280;57641;51.416;5.506;2023-07-20T12:04:03;101559.72;;;26.13;36.13
70248;BME280;57641;51.416;5.506;2023-07-20T12:06:29;101556.19;;;26.36;36.74
70248;BME280;57641;51.416;5.506;2023-07-20T12:08:59;101551.84;;;26.63;36.67
70248;BME280;57641;51.416;5.506;2023-07-20T12:13:59;101557.22;;;26.46;35.39
70248;BME280;57641;51.416;5.506;2023-07-20T12:16:27;101548.72;;;26.60;35.20
70248;BME280;57641;51.416;5.506;2023-07-20T12:19:08;101549.06;;;26.75;36.14
70248;BME280;57641;51.416;5.506;2023-07-20T12:21:35;101543.00;;;26.73;34.64
70248;BME280;57641;51.416;5.506;2023-07-20T12:24:05;101544.81;;;26.56;35.12
70248;BME280;57641;51.416;5.506;2023-07-20T12:26:32;101539.66;;;26.71;34.60
70248;BME280;57641;51.416;5.506;2023-07-20T12:29:01;101545.19;;;26.59;35.10
70248;BME280;57641;51.416;5.506;2023-07-20T12:31:36;101546.91;;;26.37;35.77
70248;BME280;57641;51.416;5.506;2023-07-20T12:34:02;101555.72;;;26.27;35.55
70248;BME280;57641;51.416;5.506;2023-07-20T12:36:28;101555.69;;;26.04;36.35
70248;BME280;57641;51.416;5.506;2023-07-20T12:38:54;101555.09;;;26.14;36.29
70248;BME280;57641;51.416;5.506;2023-07-20T12:41:20;101547.38;;;26.11;37.44
70248;BME280;57641;51.416;5.506;2023-07-20T12:43:47;101546.44;;;26.17;36.59
70248;BME280;57641;51.416;5.506;2023-07-20T12:46:13;101552.63;;;26.00;36.07
70248;BME280;57641;51.416;5.506;2023-07-20T12:48:42;101556.03;;;26.07;35.74
70248;BME280;57641;51.416;5.506;2023-07-20T12:51:09;101543.59;;;26.12;36.29
70248;BME280;57641;51.416;5.506;2023-07-20T12:53:35;101549.16;;;25.93;36.24
70248;BME280;57641;51.416;5.506;2023-07-20T12:56:01;101540.59;;;26.01;37.11
70248;BME280;57641;51.416;5.506;2023-07-20T12:58:27;101547.88;;;25.96;36.43
70248;BME280;57641;51.416;5.506;2023-07-20T13:00:53;101544.31;;;25.95;35.95
70248;BME280;57641;51.416;5.506;2023-07-20T13:03:20;101531.94;;;26.04;37.27